Time;durP1;ratioP1;P1;durP2;ratioP2;P2;SDS_P1;SDS_P2;PMS_P1;PMS_P2;Temp;Humidity;BMP_temperature;BMP_pressure;BME280_temperature;BME280_humidity;BME280_pressure;Samples;Min_cycle;Max_cycle;Signal;HPM_P1;HPM_P2
2022/03/25 00:00:37;;;;;;;10.23;5.07;;;9.70;60.10;;;;;;4971950;28;20043;-80
2022/03/25 00:03:05;;;;;;;11.57;5.95;;;9.70;60.20;;;;;;4988468;28;20047;-80
2022/03/25 00:05:32;;;;;;;11.52;5.82;;;9.70;60.30;;;;;;4988463;28;20047;-80
2022/03/25 00:08:00;;;;;;;12.18;6.07;;;9.60;60.30;;;;;;4988364;28;20454;-80
2022/03/25 00:10:28;;;;;;;12.20;5.10;;;9.60;61.00;;;;;;4988497;28;20053;-81
2022/03/25 00:12:55;;;;;;;10.90;6.25;;;9.60;60.40;;;;;;4971995;28;20062;-81
2022/03/25 00:15:22;;;;;;;15.13;7.45;;;9.60;60.40;;;;;;4988484;28;20049;-81
2022/03/25 00:17:49;;;;;;;12.57;6.88;;;9.50;60.30;;;;;;4971958;28;20053;-81
2022/03/25 00:20:17;;;;;;;13.90;7.20;;;9.50;60.30;;;;;;4973106;28;20039;-80
2022/03/25 00:22:44;;;;;;;11.25;6.75;;;9.50;60.50;;;;;;4973693;28;20043;-81
2022/03/25 00:25:13;;;;;;;15.48;8.15;;;9.50;60.40;;;;;;4956109;28;20043;-81
2022/03/25 00:27:40;;;;;;;14.00;7.72;;;9.40;60.40;;;;;;4972647;28;20054;-80
2022/03/25 00:30:08;;;;;;;14.80;7.97;;;9.40;60.40;;;;;;4988344;28;20117;-81
2022/03/25 00:32:35;;;;;;;14.60;7.78;;;9.40;60.60;;;;;;4988771;28;20102;-81
2022/03/25 00:35:02;;;;;;;18.92;8.93;;;9.30;60.60;;;;;;4971942;28;20098;-81
2022/03/25 00:37:29;;;;;;;17.13;8.88;;;9.30;60.70;;;;;;4973478;28;20097;-81
2022/03/25 00:39:58;;;;;;;17.15;8.85;;;9.30;60.70;;;;;;4959579;28;20070;-80
2022/03/25 00:42:25;;;;;;;15.57;7.75;;;9.20;60.70;;;;;;4959361;28;20045;-80
2022/03/25 00:44:52;;;;;;;15.00;7.97;;;9.20;60.80;;;;;;4991645;28;20061;-80
2022/03/25 00:47:19;;;;;;;16.65;9.07;;;9.20;60.90;;;;;;4991471;28;20043;-80
2022/03/25 00:49:46;;;;;;;18.85;9.90;;;9.20;61.00;;;;;;4975133;28;20057;-80
2022/03/25 00:52:13;;;;;;;18.58;9.52;;;9.10;61.00;;;;;;4975520;28;20098;-81
2022/03/25 00:54:40;;;;;;;16.90;9.63;;;9.10;61.10;;;;;;4990737;28;20409;-80
2022/03/25 00:57:07;;;;;;;20.58;11.50;;;9.10;61.30;;;;;;4978285;28;20046;-81
2022/03/25 00:59:34;;;;;;;17.80;10.10;;;9.00;61.30;;;;;;4994155;28;20046;-80
2022/03/25 01:02:03;;;;;;;19.60;10.02;;;9.00;61.40;;;;;;4994374;28;20035;-81
2022/03/25 01:04:30;;;;;;;20.92;10.65;;;9.00;61.50;;;;;;4978103;28;20050;-81
2022/03/25 01:06:57;;;;;;;21.10;10.82;;;9.00;61.60;;;;;;4977984;28;20137;-81
2022/03/25 01:09:24;;;;;;;18.13;10.20;;;9.00;61.60;;;;;;4977934;28;20038;-81
2022/03/25 01:11:52;;;;;;;20.02;10.23;;;8.90;61.70;;;;;;4977909;28;20051;-81
2022/03/25 01:14:19;;;;;;;21.70;12.32;;;8.90;61.80;;;;;;4993961;28;20129;-81
2022/03/25 01:16:46;;;;;;;24.52;12.57;;;8.90;61.80;;;;;;4980575;28;20049;-80
2022/03/25 01:19:14;;;;;;;22.60;11.40;;;8.90;61.80;;;;;;4997156;28;20453;-80
2022/03/25 01:21:41;;;;;;;22.77;11.02;;;8.80;61.90;;;;;;4997115;28;20052;-81
2022/03/25 01:24:09;;;;;;;19.20;11.35;;;8.80;61.90;;;;;;4997240;28;20061;-81
2022/03/25 01:26:36;;;;;;;18.42;10.32;;;8.80;62.10;;;;;;4981060;28;20041;-80
2022/03/25 01:29:05;;;;;;;17.42;8.93;;;8.80;62.10;;;;;;4997488;28;20038;-81
2022/03/25 01:31:32;;;;;;;15.88;8.88;;;8.70;62.20;;;;;;4997253;28;20074;-81
2022/03/25 01:34:02;;;;;;;19.10;8.27;;;8.70;62.40;;;;;;4997018;28;20046;-80
2022/03/25 01:36:30;;;;;;;16.48;8.95;;;8.60;62.40;;;;;;4996876;28;20037;-80
2022/03/25 01:38:58;;;;;;;15.90;8.30;;;8.60;62.50;;;;;;4997205;28;20049;-81
2022/03/25 01:41:25;;;;;;;18.08;8.77;;;8.60;62.60;;;;;;4980922;28;20049;-81
2022/03/25 01:43:55;;;;;;;16.83;8.65;;;8.60;62.70;;;;;;4980684;28;20049;-80
2022/03/25 01:46:23;;;;;;;17.42;9.25;;;8.60;62.80;;;;;;4997275;28;20038;-80
2022/03/25 01:48:51;;;;;;;16.20;8.70;;;8.50;63.50;;;;;;4995836;28;20046;-81
2022/03/25 01:51:38;;;;;;;17.15;8.90;;;8.50;62.80;;;;;;4997027;28;20042;-81
2022/03/25 01:54:17;;;;;;;14.15;8.10;;;8.50;62.90;;;;;;4976493;28;20058;-81
2022/03/25 01:56:53;;;;;;;17.13;8.27;;;8.50;62.90;;;;;;5025385;28;20133;-81
2022/03/25 01:59:24;;;;;;;16.92;7.93;;;8.50;63.00;;;;;;5025750;28;20049;-81
2022/03/25 02:01:54;;;;;;;14.57;8.05;;;8.40;63.00;;;;;;4977301;28;20253;-81
2022/03/25 02:04:23;;;;;;;15.30;8.23;;;8.40;63.00;;;;;;4977382;28;20038;-81
2022/03/25 02:06:52;;;;;;;17.70;8.45;;;8.40;63.00;;;;;;4976833;28;20073;-80
2022/03/25 02:09:21;;;;;;;15.82;8.27;;;8.30;63.10;;;;;;5009787;28;20138;-81
2022/03/25 02:11:48;;;;;;;14.48;7.32;;;8.30;63.30;;;;;;5009550;28;20053;-81
2022/03/25 02:14:19;;;;;;;15.00;7.43;;;8.20;63.30;;;;;;4977486;28;20050;-81
2022/03/25 02:16:47;;;;;;;13.82;6.93;;;8.20;63.50;;;;;;4993200;28;20046;-81
2022/03/25 02:19:19;;;;;;;12.02;6.95;;;8.20;63.50;;;;;;4977038;28;20042;-81
2022/03/25 02:21:49;;;;;;;15.43;7.80;;;8.20;63.70;;;;;;5010386;28;20073;-81
2022/03/25 02:24:22;;;;;;;13.68;7.55;;;8.10;63.70;;;;;;5010195;28;20062;-80
2022/03/25 02:26:51;;;;;;;16.02;8.05;;;8.10;63.80;;;;;;4998877;28;20045;-81
2022/03/25 02:29:19;;;;;;;15.48;7.78;;;8.10;63.80;;;;;;4998702;28;20049;-81
2022/03/25 02:31:46;;;;;;;15.65;7.97;;;8.10;63.90;;;;;;5015071;28;20128;-81
2022/03/25 02:34:14;;;;;;;17.40;9.43;;;8.00;64.00;;;;;;4982253;28;20363;-81
2022/03/25 02:36:44;;;;;;;15.57;8.40;;;8.10;64.10;;;;;;5014573;28;20061;-81
2022/03/25 02:39:14;;;;;;;19.48;9.55;;;8.00;64.10;;;;;;5014364;28;20041;-81
2022/03/25 02:41:42;;;;;;;14.65;9.15;;;8.00;64.30;;;;;;4998147;28;20140;-81
2022/03/25 02:44:10;;;;;;;18.55;9.70;;;8.00;64.40;;;;;;4998265;28;20072;-81
2022/03/25 02:46:43;;;;;;;23.10;11.43;;;8.00;64.40;;;;;;4968559;28;20051;-81
2022/03/25 02:49:11;;;;;;;21.73;11.60;;;8.00;64.60;;;;;;4998224;28;20038;-81
2022/03/25 02:51:38;;;;;;;17.98;10.55;;;8.00;64.60;;;;;;5014195;28;20533;-81
2022/03/25 02:54:05;;;;;;;20.58;12.25;;;7.90;64.70;;;;;;4981899;28;20057;-80
2022/03/25 02:56:33;;;;;;;20.45;11.68;;;7.90;65.40;;;;;;4998019;28;20056;-81
2022/03/25 02:59:00;;;;;;;21.10;11.65;;;7.90;65.00;;;;;;4993191;28;20058;-81
2022/03/25 03:01:28;;;;;;;20.52;11.48;;;7.80;65.00;;;;;;5008357;28;20410;-81
2022/03/25 03:03:55;;;;;;;19.80;11.05;;;7.80;65.20;;;;;;5024963;28;20042;-81
2022/03/25 03:06:22;;;;;;;21.98;11.90;;;7.70;65.30;;;;;;4992347;28;20104;-80
2022/03/25 03:08:49;;;;;;;20.33;10.15;;;7.70;65.40;;;;;;5008631;28;20133;-81
2022/03/25 03:11:17;;;;;;;18.25;9.55;;;7.70;65.50;;;;;;5008216;28;20080;-81
2022/03/25 03:13:46;;;;;;;19.48;10.02;;;7.60;65.60;;;;;;4975964;28;20054;-81
2022/03/25 03:16:13;;;;;;;18.52;10.60;;;7.60;65.80;;;;;;5008318;28;20058;-80
2022/03/25 03:18:40;;;;;;;17.25;10.07;;;7.60;66.00;;;;;;4991803;28;20465;-81
2022/03/25 03:21:08;;;;;;;17.40;9.90;;;7.50;66.10;;;;;;4992050;28;20069;-81
2022/03/25 03:23:35;;;;;;;18.85;10.18;;;7.50;66.20;;;;;;5008378;28;20046;-81
2022/03/25 03:26:03;;;;;;;18.80;10.07;;;7.40;66.30;;;;;;4993148;28;20042;-81
2022/03/25 03:28:31;;;;;;;17.40;10.25;;;7.40;66.50;;;;;;5008694;28;20038;-81
2022/03/25 03:30:58;;;;;;;18.27;10.65;;;7.40;66.60;;;;;;5008061;28;20478;-81
2022/03/25 03:33:25;;;;;;;19.58;11.70;;;7.40;66.70;;;;;;5008317;28;20073;-81
2022/03/25 03:35:52;;;;;;;18.40;9.75;;;7.30;66.80;;;;;;4991853;28;20050;-81
2022/03/25 03:38:20;;;;;;;18.67;10.73;;;7.30;66.90;;;;;;5008518;28;20225;-80
2022/03/25 03:40:47;;;;;;;19.17;9.80;;;7.30;67.00;;;;;;4992097;28;20425;-80
2022/03/25 03:43:16;;;;;;;22.08;13.25;;;7.30;67.10;;;;;;4991556;28;20038;-80
2022/03/25 03:45:43;;;;;;;21.50;12.02;;;7.20;67.20;;;;;;4991330;28;20561;-81
2022/03/25 03:48:11;;;;;;;27.20;14.88;;;7.30;67.40;;;;;;4991503;28;20056;-81
2022/03/25 03:50:38;;;;;;;29.80;16.35;;;7.20;68.30;;;;;;5008135;28;20062;-80
2022/03/25 03:53:05;;;;;;;33.35;18.35;;;7.30;67.70;;;;;;5010844;28;20080;-80
2022/03/25 03:55:34;;;;;;;30.13;17.50;;;7.20;67.90;;;;;;4978821;28;20386;-81
2022/03/25 03:58:01;;;;;;;28.75;16.30;;;7.10;68.00;;;;;;4978611;28;20050;-81
2022/03/25 04:00:28;;;;;;;27.30;15.75;;;7.10;68.10;;;;;;4962753;28;20498;-80
2022/03/25 04:02:55;;;;;;;28.83;16.02;;;7.10;68.10;;;;;;4994727;28;20053;-81
2022/03/25 04:05:23;;;;;;;24.70;14.25;;;7.10;68.30;;;;;;4962808;28;20045;-81
2022/03/25 04:07:50;;;;;;;25.05;14.55;;;7.00;68.50;;;;;;4962785;28;20052;-81
2022/03/25 04:10:21;;;;;;;26.55;14.95;;;7.00;68.60;;;;;;4978910;28;20046;-80
2022/03/25 04:12:48;;;;;;;28.15;14.88;;;6.90;68.60;;;;;;4997596;28;20042;-81
2022/03/25 04:15:16;;;;;;;27.15;14.50;;;6.90;68.80;;;;;;4966586;28;20049;-81
2022/03/25 04:17:44;;;;;;;23.85;13.45;;;6.90;68.90;;;;;;4982427;28;20233;-81
2022/03/25 04:20:14;;;;;;;24.48;13.80;;;6.90;69.00;;;;;;4982432;28;20486;-80
2022/03/25 04:22:42;;;;;;;26.63;13.05;;;6.90;69.20;;;;;;4998722;28;20038;-81
2022/03/25 04:25:10;;;;;;;23.75;14.35;;;6.80;69.30;;;;;;4982648;28;20038;-81
2022/03/25 04:27:58;;;;;;;25.23;13.95;;;6.90;69.50;;;;;;4982710;28;20202;-81
2022/03/25 04:30:31;;;;;;;22.20;11.65;;;6.80;69.50;;;;;;4998478;28;20045;-80
2022/03/25 04:32:59;;;;;;;20.45;11.30;;;6.80;69.60;;;;;;4966417;28;20049;-81
2022/03/25 04:35:28;;;;;;;22.33;11.93;;;6.70;69.70;;;;;;4966814;28;20104;-81
2022/03/25 04:37:56;;;;;;;23.23;11.75;;;6.70;69.80;;;;;;4982702;28;20056;-81
2022/03/25 04:40:26;;;;;;;23.02;13.52;;;6.70;69.90;;;;;;4966025;28;20068;-80
2022/03/25 04:42:55;;;;;;;20.88;12.10;;;6.70;70.00;;;;;;4998121;28;20128;-80
2022/03/25 04:45:24;;;;;;;20.90;11.13;;;6.70;70.10;;;;;;4966078;28;20046;-81
2022/03/25 04:47:52;;;;;;;21.38;12.20;;;6.70;70.10;;;;;;4981388;28;20497;-81
2022/03/25 04:50:21;;;;;;;21.73;12.15;;;6.60;70.30;;;;;;4965287;28;20065;-80
2022/03/25 04:52:51;;;;;;;25.65;12.63;;;6.60;70.30;;;;;;4981108;28;20077;-81
2022/03/25 04:55:21;;;;;;;25.48;12.82;;;6.60;70.40;;;;;;4978228;28;20060;-81
2022/03/25 04:57:51;;;;;;;27.23;15.73;;;6.60;71.10;;;;;;4994605;28;20061;-80
2022/03/25 05:00:18;;;;;;;28.52;14.93;;;6.60;70.60;;;;;;4994688;28;20053;-81
2022/03/25 05:02:46;;;;;;;23.73;13.80;;;6.70;70.70;;;;;;5010844;28;20105;-81
2022/03/25 05:05:13;;;;;;;27.92;15.00;;;6.60;70.60;;;;;;5010806;28;20137;-81
2022/03/25 05:07:45;;;;;;;27.67;14.82;;;6.60;70.80;;;;;;5010665;28;20129;-81
2022/03/25 05:10:13;;;;;;;30.38;17.33;;;6.60;71.00;;;;;;4994212;28;20054;-81
2022/03/25 05:12:41;;;;;;;31.63;16.88;;;6.60;71.10;;;;;;4978303;28;20046;-81
2022/03/25 05:15:10;;;;;;;31.17;17.80;;;6.60;71.80;;;;;;4994133;28;20054;-81
2022/03/25 05:17:48;;;;;;;29.17;16.55;;;6.60;71.30;;;;;;4994093;28;20081;-81
2022/03/25 05:20:17;;;;;;;25.15;14.52;;;6.60;71.50;;;;;;4994199;28;20042;-81
2022/03/25 05:22:46;;;;;;;30.73;16.20;;;6.50;71.40;;;;;;4994150;28;20049;-81
2022/03/25 05:25:13;;;;;;;29.85;15.80;;;6.50;71.50;;;;;;4995323;28;20407;-81
2022/03/25 05:27:51;;;;;;;29.55;15.95;;;6.50;71.70;;;;;;4994131;28;20066;-81
2022/03/25 05:30:24;;;;;;;25.05;14.10;;;6.50;71.80;;;;;;4977863;28;20054;-81
2022/03/25 05:32:51;;;;;;;29.10;15.73;;;6.50;71.80;;;;;;4993972;28;20068;-81
2022/03/25 05:35:19;;;;;;;26.90;13.80;;;6.50;71.90;;;;;;4993701;28;20089;-81
2022/03/25 05:37:47;;;;;;;30.95;16.95;;;6.50;72.00;;;;;;4993933;28;20054;-81
2022/03/25 05:40:16;;;;;;;32.75;17.88;;;6.40;72.30;;;;;;4977554;28;20064;-81
2022/03/25 05:42:43;;;;;;;34.63;18.77;;;6.40;72.20;;;;;;5010140;28;20042;-81
2022/03/25 05:45:11;;;;;;;34.58;19.85;;;6.40;72.30;;;;;;4977872;28;20046;-81
2022/03/25 05:47:40;;;;;;;35.40;19.67;;;6.40;72.40;;;;;;4993686;28;20054;-81
2022/03/25 05:50:09;;;;;;;30.15;16.65;;;6.40;72.50;;;;;;5026697;28;20051;-81
2022/03/25 05:52:38;;;;;;;27.92;14.95;;;6.40;72.50;;;;;;4993850;28;20065;-81
2022/03/25 05:55:05;;;;;;;28.90;15.88;;;6.40;72.60;;;;;;4992039;28;20085;-81
2022/03/25 05:57:32;;;;;;;25.08;14.57;;;6.40;72.60;;;;;;4980518;28;20567;-81
2022/03/25 06:00:00;;;;;;;25.92;14.25;;;6.40;72.70;;;;;;4980320;28;20053;-81
2022/03/25 06:02:38;;;;;;;27.58;15.40;;;6.40;72.90;;;;;;5012599;28;20410;-81
2022/03/25 06:05:08;;;;;;;28.38;16.13;;;6.40;72.90;;;;;;4980308;28;20570;-82
2022/03/25 06:07:40;;;;;;;30.00;17.95;;;6.40;73.00;;;;;;4980455;28;20133;-82
2022/03/25 06:10:09;;;;;;;31.98;18.23;;;6.40;73.10;;;;;;4980121;28;20050;-81
2022/03/25 06:12:39;;;;;;;35.33;20.45;;;6.40;73.10;;;;;;4980414;28;20041;-81
2022/03/25 06:15:08;;;;;;;34.95;19.38;;;6.40;73.40;;;;;;4980554;28;20104;-81
2022/03/25 06:17:47;;;;;;;31.27;18.08;;;6.40;73.30;;;;;;4964628;28;20529;-81
2022/03/25 06:20:20;;;;;;;31.08;17.20;;;6.40;73.40;;;;;;4996052;28;20049;-81
2022/03/25 06:22:49;;;;;;;32.20;16.80;;;6.40;73.40;;;;;;4979474;28;20100;-81
2022/03/25 06:25:17;;;;;;;28.70;15.07;;;6.50;73.30;;;;;;4979693;28;20034;-81
2022/03/25 06:27:54;;;;;;;25.73;14.07;;;6.50;73.30;;;;;;4979288;28;20081;-81
2022/03/25 06:30:26;;;;;;;30.10;17.02;;;6.60;73.20;;;;;;4979276;28;20050;-82
2022/03/25 06:32:54;;;;;;;;;;;6.70;73.20;;;;;;4996166;28;20042;-82
2022/03/25 06:35:21;;;;;;;28.42;15.95;;;6.70;72.90;;;;;;4996434;28;19968;-83
2022/03/25 06:37:48;;;;;;;28.58;15.93;;;6.70;72.90;;;;;;4980748;28;20053;-82
2022/03/25 06:40:16;;;;;;;25.90;15.23;;;6.80;72.80;;;;;;4996719;28;20379;-82
2022/03/25 06:42:43;;;;;;;26.67;14.73;;;6.90;72.80;;;;;;4979773;28;20129;-82
2022/03/25 06:45:12;;;;;;;28.77;16.08;;;7.00;73.40;;;;;;4979670;28;20042;-82
2022/03/25 06:47:40;;;;;;;25.20;13.35;;;7.10;72.70;;;;;;4979682;28;20048;-82
2022/03/25 06:50:10;;;;;;;26.40;13.57;;;7.10;73.20;;;;;;4979806;28;20038;-82
2022/03/25 06:52:37;;;;;;;22.10;12.40;;;7.30;72.50;;;;;;4979598;28;20048;-82
2022/03/25 06:55:05;;;;;;;21.77;11.80;;;7.40;72.40;;;;;;4979627;28;20050;-81
2022/03/25 06:57:32;;;;;;;17.58;9.82;;;7.40;72.30;;;;;;4979918;28;20049;-81
2022/03/25 07:00:00;;;;;;;20.70;11.63;;;7.60;72.30;;;;;;4995655;28;20104;-79
2022/03/25 07:02:27;;;;;;;19.75;11.48;;;7.70;72.20;;;;;;4995212;28;20046;-80
2022/03/25 07:04:54;;;;;;;20.75;11.73;;;7.70;72.00;;;;;;4963528;28;20128;-82
2022/03/25 07:07:26;;;;;;;24.13;12.55;;;7.80;71.90;;;;;;4979416;28;20038;-81
2022/03/25 07:09:54;;;;;;;21.60;11.97;;;7.90;71.90;;;;;;4980135;28;20053;-82
2022/03/25 07:12:21;;;;;;;18.45;11.05;;;8.00;71.80;;;;;;4995703;28;20311;-81
2022/03/25 07:14:48;;;;;;;18.95;11.13;;;8.10;71.70;;;;;;4979209;28;20050;-81
2022/03/25 07:17:15;;;;;;;19.67;11.93;;;8.20;71.70;;;;;;4979411;28;20437;-81
2022/03/25 07:19:42;;;;;;;23.45;12.57;;;8.30;71.60;;;;;;5011942;28;20179;-80
2022/03/25 07:22:09;;;;;;;23.00;13.27;;;8.30;71.50;;;;;;4963714;28;20038;-79
2022/03/25 07:24:37;;;;;;;26.65;13.60;;;8.30;71.60;;;;;;4963234;28;20037;-79
2022/03/25 07:27:04;;;;;;;31.15;16.95;;;8.40;71.50;;;;;;4963161;28;20042;-81
2022/03/25 07:29:31;;;;;;;30.05;17.75;;;8.40;71.50;;;;;;4979121;28;20414;-80
2022/03/25 07:31:58;;;;;;;30.90;18.13;;;8.50;71.50;;;;;;4995547;28;20224;-80
2022/03/25 07:34:25;;;;;;;28.92;16.85;;;8.50;71.50;;;;;;4978978;28;20057;-79
2022/03/25 07:36:52;;;;;;;31.70;18.05;;;8.50;71.40;;;;;;4963267;28;20060;-81
2022/03/25 07:39:19;;;;;;;28.98;15.18;;;8.60;71.50;;;;;;4995094;28;20046;-79
2022/03/25 07:41:46;;;;;;;28.17;16.10;;;8.70;71.40;;;;;;4963146;28;20050;-80
2022/03/25 07:44:13;;;;;;;26.48;15.27;;;8.80;71.20;;;;;;4979388;28;20564;-81
2022/03/25 07:46:41;;;;;;;27.42;16.85;;;8.90;71.10;;;;;;4980062;28;20068;-80
2022/03/25 07:49:11;;;;;;;27.67;15.32;;;8.90;71.00;;;;;;4999523;28;20050;-80
2022/03/25 07:51:38;;;;;;;26.73;15.38;;;9.00;70.80;;;;;;4999231;28;20054;-80
2022/03/25 07:54:08;;;;;;;27.55;16.00;;;9.10;70.60;;;;;;4982883;28;20073;-78
2022/03/25 07:56:35;;;;;;;28.27;17.50;;;9.10;70.50;;;;;;4996070;28;20073;-80
2022/03/25 07:59:03;;;;;;;29.65;15.95;;;9.20;70.30;;;;;;4995844;28;20043;-81
2022/03/25 08:01:31;;;;;;;30.85;17.65;;;9.30;70.20;;;;;;5012261;28;20047;-81
2022/03/25 08:03:58;;;;;;;30.48;18.48;;;9.30;70.00;;;;;;5011709;28;20070;-81
2022/03/25 08:06:25;;;;;;;29.35;17.30;;;9.40;69.90;;;;;;4995229;28;20140;-79
2022/03/25 08:08:52;;;;;;;33.97;20.25;;;9.40;69.80;;;;;;4994942;28;20042;-82
2022/03/25 08:11:20;;;;;;;34.10;19.20;;;9.50;69.70;;;;;;4995467;28;20410;-80
2022/03/25 08:13:47;;;;;;;37.30;20.50;;;9.50;69.60;;;;;;5011903;28;20050;-80
2022/03/25 08:16:16;;;;;;;29.50;16.85;;;9.60;69.50;;;;;;4979007;28;20411;-79
2022/03/25 08:18:46;;;;;;;27.73;17.02;;;9.70;69.40;;;;;;5011229;28;20406;-79
2022/03/25 08:21:16;;;;;;;30.55;17.75;;;9.70;69.30;;;;;;4979452;28;20053;-79
2022/03/25 08:29:22;;;;;;;29.25;16.95;;;10.00;68.90;;;;;;5008144;28;20074;-89
2022/03/25 08:31:49;;;;;;;28.25;16.45;;;10.00;68.70;;;;;;4974412;28;20109;-89
2022/03/25 08:34:16;;;;;;;29.48;18.00;;;10.10;68.50;;;;;;4959064;28;20431;-85
2022/03/25 08:36:48;;;;;;;27.77;15.85;;;10.10;68.40;;;;;;4975444;28;20109;-87
2022/03/25 08:39:17;;;;;;;28.38;16.17;;;10.20;68.30;;;;;;4975312;28;20047;-88
2022/03/25 08:41:50;;;;;;;26.65;16.05;;;10.20;68.20;;;;;;4991679;28;20403;-86
2022/03/25 08:44:26;;;;;;;25.25;15.40;;;10.30;68.10;;;;;;4975105;28;20053;-89
2022/03/25 08:46:53;;;;;;;23.88;14.85;;;10.30;68.00;;;;;;4977113;28;20053;-89
2022/03/25 08:49:20;;;;;;;27.50;15.27;;;10.40;67.90;;;;;;4963427;28;20822;-90
2022/03/25 08:51:47;;;;;;;29.52;16.75;;;10.40;67.70;;;;;;4962626;28;20097;-90
2022/03/25 08:54:21;;;;;;;28.15;16.33;;;10.50;67.40;;;;;;4979567;28;20050;-90
2022/03/25 08:56:51;;;;;;;28.83;16.90;;;10.60;67.30;;;;;;4977921;28;20209;-82
2022/03/25 08:59:17;;;;;;;28.02;16.52;;;10.60;67.00;;;;;;4989710;28;20058;-81
2022/03/25 09:01:45;;;;;;;33.20;17.52;;;10.60;66.80;;;;;;4960287;28;20491;-80
2022/03/25 09:04:12;;;;;;;31.50;18.13;;;10.70;66.70;;;;;;4989654;28;20102;-81
2022/03/25 09:06:39;;;;;;;28.77;17.23;;;10.80;66.60;;;;;;4975648;28;20050;-81
2022/03/25 09:09:06;;;;;;;28.77;17.05;;;10.80;66.30;;;;;;4992350;28;20047;-81
2022/03/25 09:11:36;;;;;;;26.52;16.15;;;10.90;66.10;;;;;;4977497;28;20043;-81
2022/03/25 09:14:05;;;;;;;28.60;16.80;;;11.00;65.90;;;;;;4978748;28;20045;-83
2022/03/25 09:16:32;;;;;;;26.95;16.52;;;11.00;65.70;;;;;;4978784;28;20418;-84
2022/03/25 09:18:59;;;;;;;30.88;18.23;;;11.10;65.60;;;;;;4978601;28;20046;-83
2022/03/25 09:21:27;;;;;;;30.83;17.15;;;11.10;65.30;;;;;;4978588;28;20198;-83
2022/03/25 09:23:54;;;;;;;31.23;17.33;;;11.20;65.20;;;;;;4962516;28;20481;-83
2022/03/25 09:26:21;;;;;;;27.35;16.15;;;11.30;65.10;;;;;;4962336;28;20046;-83
2022/03/25 09:28:48;;;;;;;35.78;19.13;;;11.30;65.00;;;;;;4978473;28;20042;-83
2022/03/25 09:31:15;;;;;;;30.80;18.52;;;11.40;64.70;;;;;;4962568;28;20502;-84
2022/03/25 09:36:49;;;;;;;30.13;17.38;;;11.60;64.40;;;;;;4980795;28;20050;-84
2022/03/25 09:39:16;;;;;;;30.98;16.45;;;11.70;64.20;;;;;;4993970;28;20047;-82
2022/03/25 09:41:46;;;;;;;29.30;16.85;;;11.70;64.00;;;;;;4978005;28;20050;-83
2022/03/25 09:44:16;;;;;;;24.92;15.70;;;11.80;63.80;;;;;;4978406;28;20049;-82
2022/03/25 09:46:44;;;;;;;27.15;15.27;;;11.80;63.70;;;;;;4977649;28;20144;-82
2022/03/25 09:49:12;;;;;;;29.85;17.55;;;11.90;63.50;;;;;;4977989;28;20046;-83
2022/03/25 09:51:43;;;;;;;30.80;19.52;;;12.00;63.30;;;;;;4993760;28;20046;-83
2022/03/25 09:54:14;;;;;;;30.65;18.58;;;12.00;62.90;;;;;;4977356;28;20052;-83
2022/03/25 09:56:41;;;;;;;27.90;17.00;;;12.10;62.90;;;;;;4993534;28;20170;-84
2022/03/25 09:59:09;;;;;;;28.33;17.20;;;12.20;62.90;;;;;;4977438;28;20049;-83
2022/03/25 10:01:36;;;;;;;28.38;17.30;;;12.20;62.70;;;;;;4977333;28;20136;-83
2022/03/25 10:04:06;;;;;;;30.67;17.80;;;12.30;62.70;;;;;;4977378;28;20046;-83
2022/03/25 10:06:47;;;;;;;32.53;18.42;;;12.40;62.50;;;;;;4977018;28;20141;-83
2022/03/25 10:09:21;;;;;;;33.75;19.90;;;12.50;62.20;;;;;;4993754;28;20045;-83
2022/03/25 10:11:48;;;;;;;;;;;12.60;62.70;;;;;;4977152;28;20046;-82
2022/03/25 10:14:23;;;;;;;30.10;17.23;;;12.60;62.10;;;;;;4992740;28;20771;-82
2022/03/25 10:16:52;;;;;;;25.08;16.35;;;12.70;62.00;;;;;;4976687;28;20104;-82
2022/03/25 10:19:21;;;;;;;28.13;17.70;;;12.80;62.00;;;;;;4976260;28;20050;-83
2022/03/25 10:22:00;;;;;;;32.35;18.15;;;12.90;61.80;;;;;;4976646;28;20137;-80
2022/03/25 10:24:39;;;;;;;31.05;18.33;;;13.10;61.50;;;;;;4976707;28;20093;-79
2022/03/25 10:27:22;;;;;;;36.70;21.20;;;13.20;61.40;;;;;;4992973;28;20066;-79
2022/03/25 10:29:50;;;;;;;31.25;20.17;;;13.20;61.20;;;;;;4976939;28;20048;-78
2022/03/25 10:32:25;;;;;;;35.28;18.65;;;13.30;61.10;;;;;;4976934;28;20046;-77
2022/03/25 10:35:08;;;;;;;30.83;18.30;;;13.40;61.00;;;;;;4992777;28;20404;-77
2022/03/25 10:37:38;;;;;;;32.05;17.98;;;13.40;60.90;;;;;;4992477;28;20104;-78
2022/03/25 10:40:07;;;;;;;26.50;16.48;;;13.40;60.90;;;;;;4960473;28;20050;-78
2022/03/25 10:42:36;;;;;;;28.25;15.80;;;13.60;60.90;;;;;;4976161;28;20408;-78
2022/03/25 10:45:25;;;;;;;29.05;15.93;;;13.60;60.70;;;;;;4992385;28;20042;-80
2022/03/25 10:48:11;;;;;;;29.98;15.60;;;13.70;60.50;;;;;;4992593;28;20733;-80
2022/03/25 10:50:59;;;;;;;23.10;13.80;;;13.70;60.50;;;;;;4960746;28;20060;-83
2022/03/25 10:53:28;;;;;;;23.30;14.15;;;13.80;60.50;;;;;;4976820;28;20053;-84
2022/03/25 10:55:59;;;;;;;23.38;13.13;;;13.80;60.40;;;;;;4970518;28;20077;-83
2022/03/25 10:58:28;;;;;;;21.63;12.48;;;13.90;60.40;;;;;;4979807;28;20405;-84
2022/03/25 11:00:56;;;;;;;20.35;12.05;;;14.00;60.40;;;;;;4995794;28;20050;-84
2022/03/25 11:03:24;;;;;;;25.20;14.27;;;14.00;60.30;;;;;;4995691;28;20053;-84
2022/03/25 11:05:52;;;;;;;22.45;11.73;;;14.10;60.20;;;;;;4996062;28;20065;-84
2022/03/25 11:08:20;;;;;;;19.80;11.30;;;14.10;60.00;;;;;;4979639;28;20062;-85
2022/03/25 11:10:53;;;;;;;19.33;10.40;;;14.10;59.90;;;;;;4995681;28;20038;-84
2022/03/25 11:13:22;;;;;;;22.13;11.75;;;14.20;59.90;;;;;;4995644;28;20108;-84
2022/03/25 11:15:53;;;;;;;19.95;11.98;;;14.30;59.60;;;;;;4995902;28;20073;-84
2022/03/25 11:18:21;;;;;;;21.15;12.88;;;14.30;59.30;;;;;;4979733;28;20104;-84
2022/03/25 11:20:51;;;;;;;18.80;11.48;;;14.30;59.20;;;;;;4995405;28;20383;-84
2022/03/25 11:23:24;;;;;;;22.27;10.98;;;14.30;59.10;;;;;;4979595;28;20057;-84
2022/03/25 11:25:56;;;;;;;18.35;10.63;;;14.40;59.00;;;;;;4995529;28;20045;-80
2022/03/25 11:28:32;;;;;;;18.42;10.43;;;14.40;59.00;;;;;;4995512;28;20037;-80
2022/03/25 11:31:02;;;;;;;19.35;10.50;;;14.40;58.90;;;;;;4995068;28;20489;-84
2022/03/25 11:33:31;;;;;;;18.85;10.98;;;14.50;58.90;;;;;;4979317;28;20124;-84
2022/03/25 11:36:14;;;;;;;20.10;11.85;;;14.60;58.80;;;;;;4995820;28;20132;-84
2022/03/25 11:38:43;;;;;;;22.73;11.27;;;14.70;58.70;;;;;;4995410;28;20052;-84
2022/03/25 11:41:21;;;;;;;19.98;10.98;;;14.70;58.80;;;;;;4995383;28;20468;-84
2022/03/25 11:44:13;;;;;;;19.80;10.32;;;14.80;58.70;;;;;;4995196;28;20050;-84
2022/03/25 11:46:59;;;;;;;17.77;9.63;;;14.90;58.70;;;;;;4996239;28;20038;-85
2022/03/25 11:49:33;;;;;;;18.25;9.77;;;14.90;58.60;;;;;;4995347;28;20066;-85
2022/03/25 11:52:18;;;;;;;20.48;10.60;;;14.90;58.60;;;;;;4995726;28;20046;-85
2022/03/25 11:54:55;;;;;;;19.35;9.95;;;15.00;58.50;;;;;;4979174;28;20050;-82
2022/03/25 11:57:33;;;;;;;17.95;10.98;;;15.10;58.60;;;;;;4977958;28;20050;-80
2022/03/25 12:00:06;;;;;;;21.23;11.85;;;15.20;58.40;;;;;;4979039;28;20054;-83
2022/03/25 12:02:37;;;;;;;22.83;13.02;;;15.20;58.40;;;;;;4978557;28;20429;-80
2022/03/25 12:05:25;;;;;;;21.52;13.25;;;15.30;58.30;;;;;;4992704;28;20050;-82
2022/03/25 12:08:28;;;;;;;22.33;12.57;;;15.40;58.20;;;;;;4963484;28;20474;-83
2022/03/25 12:10:56;;;;;;;22.75;12.32;;;15.60;58.30;;;;;;4992606;28;20100;-83
2022/03/25 12:14:03;;;;;;;24.65;12.82;;;15.60;58.40;;;;;;4976806;28;20050;-82
2022/03/25 12:16:46;;;;;;;22.75;12.43;;;15.60;58.20;;;;;;4992959;28;20486;-82
2022/03/25 12:19:26;;;;;;;22.90;13.52;;;15.70;58.20;;;;;;4992236;28;20092;-83
2022/03/25 12:21:54;;;;;;;21.17;12.80;;;15.80;58.10;;;;;;4991559;28;20050;-85
2022/03/25 12:24:24;;;;;;;25.13;13.43;;;15.80;58.00;;;;;;4992823;28;20129;-82
2022/03/25 12:27:00;;;;;;;25.60;14.52;;;15.80;58.00;;;;;;4958925;28;20043;-82
2022/03/25 12:29:32;;;;;;;24.27;13.75;;;15.90;58.00;;;;;;4990580;28;20053;-82
2022/03/25 12:32:14;;;;;;;24.02;12.65;;;15.90;57.90;;;;;;4975299;28;20400;-84
2022/03/25 12:35:01;;;;;;;22.17;13.75;;;16.00;58.00;;;;;;4979304;28;20047;-83
2022/03/25 12:37:38;;;;;;;24.92;12.85;;;16.00;57.90;;;;;;4978793;28;20050;-83
2022/03/25 12:40:25;;;;;;;22.98;12.63;;;16.00;58.00;;;;;;4978670;28;20043;-81
2022/03/25 12:43:08;;;;;;;19.42;11.68;;;16.00;57.90;;;;;;4978661;28;20046;-81
2022/03/25 12:45:36;;;;;;;;;;;16.10;57.90;;;;;;4963805;28;20042;-81
2022/03/25 12:48:23;;;;;;;18.98;10.15;;;16.00;58.00;;;;;;4995096;28;19929;-81
2022/03/25 12:50:55;;;;;;;18.60;11.00;;;16.10;57.80;;;;;;4994930;28;20077;-81
2022/03/25 12:53:24;;;;;;;23.42;12.35;;;16.10;57.70;;;;;;4979031;28;20070;-81
2022/03/25 12:55:53;;;;;;;17.60;10.75;;;16.10;57.40;;;;;;4975327;28;20101;-81
2022/03/25 12:58:22;;;;;;;17.65;9.60;;;16.10;57.30;;;;;;4959190;28;20047;-81